sensor_id;sensor_type;location;lat;lon;timestamp;P1;durP1;ratioP1;P2;durP2;ratioP2
55350;SDS011;62194;49.480;10.986;2024-03-06T00:00:01;16.77;;;12.20;;
55350;SDS011;62194;49.480;10.986;2024-03-06T00:00:08;16.40;;;12.17;;
55350;SDS011;62194;49.480;10.986;2024-03-06T00:00:15;16.57;;;12.23;;
55350;SDS011;62194;49.480;10.986;2024-03-06T00:00:20;16.83;;;12.23;;
55350;SDS011;62194;49.480;10.986;2024-03-06T00:00:25;16.43;;;12.07;;
55350;SDS011;62194;49.480;10.986;2024-03-06T00:00:31;16.23;;;12.20;;
55350;SDS011;62194;49.480;10.986;2024-03-06T00:00:38;16.20;;;12.20;;
55350;SDS011;62194;49.480;10.986;2024-03-06T00:00:43;16.42;;;12.32;;
55350;SDS011;62194;49.480;10.986;2024-03-06T00:00:48;16.73;;;12.43;;
55350;SDS011;62194;49.480;10.986;2024-03-06T00:00:54;16.73;;;12.27;;
55350;SDS011;62194;49.480;10.986;2024-03-06T00:00:59;17.13;;;12.33;;
55350;SDS011;62194;49.480;10.986;2024-03-06T00:01:04;17.50;;;12.45;;
55350;SDS011;62194;49.480;10.986;2024-03-06T00:01:09;17.73;;;12.67;;
55350;SDS011;62194;49.480;10.986;2024-03-06T00:01:15;18.07;;;12.73;;
55350;SDS011;62194;49.480;10.986;2024-03-06T00:01:20;17.95;;;12.95;;
55350;SDS011;62194;49.480;10.986;2024-03-06T00:01:25;18.03;;;12.93;;
55350;SDS011;62194;49.480;10.986;2024-03-06T00:01:31;18.57;;;12.90;;
55350;SDS011;62194;49.480;10.986;2024-03-06T00:01:36;18.55;;;12.75;;
55350;SDS011;62194;49.480;10.986;2024-03-06T00:01:42;18.47;;;12.53;;
55350;SDS011;62194;49.480;10.986;2024-03-06T00:01:47;17.50;;;12.32;;
55350;SDS011;62194;49.480;10.986;2024-03-06T00:01:52;16.93;;;11.90;;
55350;SDS011;62194;49.480;10.986;2024-03-06T00:01:58;16.60;;;11.83;;
55350;SDS011;62194;49.480;10.986;2024-03-06T00:02:03;15.90;;;11.68;;
55350;SDS011;62194;49.480;10.986;2024-03-06T00:02:08;15.73;;;11.70;;
55350;SDS011;62194;49.480;10.986;2024-03-06T00:02:13;15.80;;;11.57;;
55350;SDS011;62194;49.480;10.986;2024-03-06T00:02:19;16.30;;;11.65;;
55350;SDS011;62194;49.480;10.986;2024-03-06T00:02:24;16.73;;;12.07;;
55350;SDS011;62194;49.480;10.986;2024-03-06T00:02:29;17.57;;;12.33;;
55350;SDS011;62194;49.480;10.986;2024-03-06T00:02:35;17.57;;;12.47;;
55350;SDS011;62194;49.480;10.986;2024-03-06T00:02:41;17.48;;;12.73;;
55350;SDS011;62194;49.480;10.986;2024-03-06T00:02:46;17.30;;;12.82;;
55350;SDS011;62194;49.480;10.986;2024-03-06T00:02:51;17.23;;;12.87;;
55350;SDS011;62194;49.480;10.986;2024-03-06T00:02:57;16.67;;;12.80;;
55350;SDS011;62194;49.480;10.986;2024-03-06T00:03:02;16.40;;;12.90;;
55350;SDS011;62194;49.480;10.986;2024-03-06T00:03:08;16.23;;;12.55;;
55350;SDS011;62194;49.480;10.986;2024-03-06T00:03:13;16.47;;;12.50;;
55350;SDS011;62194;49.480;10.986;2024-03-06T00:03:18;16.53;;;12.40;;
55350;SDS011;62194;49.480;10.986;2024-03-06T00:03:24;15.93;;;11.98;;
55350;SDS011;62194;49.480;10.986;2024-03-06T00:03:29;15.70;;;11.57;;
55350;SDS011;62194;49.480;10.986;2024-03-06T00:03:34;15.37;;;11.57;;
55350;SDS011;62194;49.480;10.986;2024-03-06T00:03:39;15.47;;;11.50;;
55350;SDS011;62194;49.480;10.986;2024-03-06T00:03:45;15.10;;;11.13;;
55350;SDS011;62194;49.480;10.986;2024-03-06T00:03:50;15.13;;;11.07;;
55350;SDS011;62194;49.480;10.986;2024-03-06T00:03:55;15.53;;;11.23;;
55350;SDS011;62194;49.480;10.986;2024-03-06T00:04:01;16.17;;;11.60;;
55350;SDS011;62194;49.480;10.986;2024-03-06T00:04:08;16.78;;;11.87;;
55350;SDS011;62194;49.480;10.986;2024-03-06T00:04:13;16.92;;;12.32;;
55350;SDS011;62194;49.480;10.986;2024-03-06T00:04:19;18.43;;;12.87;;
55350;SDS011;62194;49.480;10.986;2024-03-06T00:04:24;18.70;;;13.00;;
55350;SDS011;62194;49.480;10.986;2024-03-06T00:04:29;18.93;;;12.90;;
55350;SDS011;62194;49.480;10.986;2024-03-06T00:04:35;18.77;;;12.82;;
55350;SDS011;62194;49.480;10.986;2024-03-06T00:04:40;18.63;;;12.73;;
55350;SDS011;62194;49.480;10.986;2024-03-06T00:04:45;18.52;;;12.63;;
55350;SDS011;62194;49.480;10.986;2024-03-06T00:04:51;17.30;;;12.53;;
55350;SDS011;62194;49.480;10.986;2024-03-06T00:04:56;17.17;;;12.33;;
55350;SDS011;62194;49.480;10.986;2024-03-06T00:05:02;16.57;;;12.23;;
55350;SDS011;62194;49.480;10.986;2024-03-06T00:05:07;16.73;;;12.30;;
55350;SDS011;62194;49.480;10.986;2024-03-06T00:05:13;16.73;;;12.43;;
55350;SDS011;62194;49.480;10.986;2024-03-06T00:05:18;16.30;;;12.23;;
55350;SDS011;62194;49.480;10.986;2024-03-06T00:05:23;16.53;;;12.13;;
55350;SDS011;62194;49.480;10.986;2024-03-06T00:05:28;16.20;;;12.25;;
55350;SDS011;62194;49.480;10.986;2024-03-06T00:05:34;15.93;;;12.10;;
55350;SDS011;62194;49.480;10.986;2024-03-06T00:05:39;15.97;;;12.30;;
55350;SDS011;62194;49.480;10.986;2024-03-06T00:05:44;16.00;;;12.25;;
55350;SDS011;62194;49.480;10.986;2024-03-06T00:05:50;16.37;;;12.37;;
55350;SDS011;62194;49.480;10.986;2024-03-06T00:05:55;17.43;;;12.63;;
55350;SDS011;62194;49.480;10.986;2024-03-06T00:06:00;18.93;;;13.20;;
55350;SDS011;62194;49.480;10.986;2024-03-06T00:06:05;19.88;;;13.55;;
55350;SDS011;62194;49.480;10.986;2024-03-06T00:06:11;20.20;;;13.47;;
55350;SDS011;62194;49.480;10.986;2024-03-06T00:06:16;20.03;;;13.53;;
55350;SDS011;62194;49.480;10.986;2024-03-06T00:06:21;19.15;;;13.18;;
55350;SDS011;62194;49.480;10.986;2024-03-06T00:06:27;18.03;;;12.77;;
55350;SDS011;62194;49.480;10.986;2024-03-06T00:06:32;17.73;;;12.53;;
55350;SDS011;62194;49.480;10.986;2024-03-06T00:06:37;17.10;;;12.07;;
55350;SDS011;62194;49.480;10.986;2024-03-06T00:06:43;17.27;;;12.10;;
55350;SDS011;62194;49.480;10.986;2024-03-06T00:06:48;17.25;;;12.13;;
55350;SDS011;62194;49.480;10.986;2024-03-06T00:06:56;18.42;;;12.60;;
55350;SDS011;62194;49.480;10.986;2024-03-06T00:07:02;17.96;;;12.60;;
55350;SDS011;62194;49.480;10.986;2024-03-06T00:07:08;17.83;;;12.83;;
55350;SDS011;62194;49.480;10.986;2024-03-06T00:07:13;17.60;;;12.97;;
55350;SDS011;62194;49.480;10.986;2024-03-06T00:07:18;17.77;;;13.02;;
55350;SDS011;62194;49.480;10.986;2024-03-06T00:07:23;17.90;;;12.90;;
55350;SDS011;62194;49.480;10.986;2024-03-06T00:07:29;17.97;;;12.77;;
55350;SDS011;62194;49.480;10.986;2024-03-06T00:07:34;18.67;;;13.02;;
55350;SDS011;62194;49.480;10.986;2024-03-06T00:07:39;19.27;;;13.03;;
55350;SDS011;62194;49.480;10.986;2024-03-06T00:07:45;19.47;;;12.80;;
55350;SDS011;62194;49.480;10.986;2024-03-06T00:07:50;19.05;;;13.00;;
55350;SDS011;62194;49.480;10.986;2024-03-06T00:07:56;18.40;;;12.97;;
55350;SDS011;62194;49.480;10.986;2024-03-06T00:08:01;18.35;;;13.05;;
55350;SDS011;62194;49.480;10.986;2024-03-06T00:08:08;17.60;;;12.82;;
55350;SDS011;62194;49.480;10.986;2024-03-06T00:08:14;17.50;;;12.77;;
55350;SDS011;62194;49.480;10.986;2024-03-06T00:08:20;17.85;;;12.70;;
55350;SDS011;62194;49.480;10.986;2024-03-06T00:08:25;18.98;;;12.70;;
55350;SDS011;62194;49.480;10.986;2024-03-06T00:08:31;19.80;;;12.70;;
55350;SDS011;62194;49.480;10.986;2024-03-06T00:08:36;20.42;;;12.85;;
55350;SDS011;62194;49.480;10.986;2024-03-06T00:08:42;20.77;;;13.13;;
55350;SDS011;62194;49.480;10.986;2024-03-06T00:08:47;21.17;;;13.50;;
55350;SDS011;62194;49.480;10.986;2024-03-06T00:08:52;20.60;;;13.37;;
55350;SDS011;62194;49.480;10.986;2024-03-06T00:08:58;18.63;;;13.27;;
55350;SDS011;62194;49.480;10.986;2024-03-06T00:09:03;18.03;;;13.00;;
55350;SDS011;62194;49.480;10.986;2024-03-06T00:09:08;17.75;;;12.82;;
55350;SDS011;62194;49.480;10.986;2024-03-06T00:09:13;17.70;;;12.53;;
55350;SDS011;62194;49.480;10.986;2024-03-06T00:09:19;17.40;;;12.53;;
55350;SDS011;62194;49.480;10.986;2024-03-06T00:09:24;18.20;;;12.70;;
55350;SDS011;62194;49.480;10.986;2024-03-06T00:09:31;18.63;;;12.80;;
55350;SDS011;62194;49.480;10.986;2024-03-06T00:09:37;18.27;;;12.82;;
55350;SDS011;62194;49.480;10.986;2024-03-06T00:09:42;18.23;;;12.90;;
55350;SDS011;62194;49.480;10.986;2024-03-06T00:09:48;18.60;;;12.93;;
55350;SDS011;62194;49.480;10.986;2024-03-06T00:09:53;18.58;;;12.77;;
55350;SDS011;62194;49.480;10.986;2024-03-06T00:09:58;18.83;;;12.80;;
55350;SDS011;62194;49.480;10.986;2024-03-06T00:10:03;18.83;;;12.80;;
55350;SDS011;62194;49.480;10.986;2024-03-06T00:10:10;18.80;;;12.72;;
55350;SDS011;62194;49.480;10.986;2024-03-06T00:10:15;18.60;;;12.63;;
55350;SDS011;62194;49.480;10.986;2024-03-06T00:10:20;18.63;;;12.87;;
55350;SDS011;62194;49.480;10.986;2024-03-06T00:10:25;18.77;;;12.83;;
55350;SDS011;62194;49.480;10.986;2024-03-06T00:10:31;19.05;;;13.07;;
55350;SDS011;62194;49.480;10.986;2024-03-06T00:10:36;19.27;;;13.07;;
55350;SDS011;62194;49.480;10.986;2024-03-06T00:10:41;19.60;;;13.20;;
55350;SDS011;62194;49.480;10.986;2024-03-06T00:10:47;18.90;;;12.90;;
55350;SDS011;62194;49.480;10.986;2024-03-06T00:10:52;18.70;;;12.80;;
55350;SDS011;62194;49.480;10.986;2024-03-06T00:10:57;18.93;;;12.73;;
55350;SDS011;62194;49.480;10.986;2024-03-06T00:11:03;18.83;;;12.63;;
55350;SDS011;62194;49.480;10.986;2024-03-06T00:11:08;18.67;;;12.70;;
55350;SDS011;62194;49.480;10.986;2024-03-06T00:11:13;18.23;;;12.70;;
55350;SDS011;62194;49.480;10.986;2024-03-06T00:11:18;18.13;;;12.67;;
55350;SDS011;62194;49.480;10.986;2024-03-06T00:11:24;17.42;;;12.55;;
55350;SDS011;62194;49.480;10.986;2024-03-06T00:11:29;16.60;;;12.23;;
55350;SDS011;62194;49.480;10.986;2024-03-06T00:11:35;16.80;;;12.32;;
55350;SDS011;62194;49.480;10.986;2024-03-06T00:11:43;17.37;;;12.63;;
55350;SDS011;62194;49.480;10.986;2024-03-06T00:11:49;17.55;;;12.63;;
55350;SDS011;62194;49.480;10.986;2024-03-06T00:11:56;18.30;;;12.93;;
55350;SDS011;62194;49.480;10.986;2024-03-06T00:12:02;17.63;;;12.63;;
55350;SDS011;62194;49.480;10.986;2024-03-06T00:12:08;17.33;;;12.30;;
55350;SDS011;62194;49.480;10.986;2024-03-06T00:12:13;16.77;;;12.03;;
55350;SDS011;62194;49.480;10.986;2024-03-06T00:12:18;16.63;;;11.93;;
55350;SDS011;62194;49.480;10.986;2024-03-06T00:12:24;16.40;;;11.93;;
55350;SDS011;62194;49.480;10.986;2024-03-06T00:12:29;16.45;;;11.95;;
55350;SDS011;62194;49.480;10.986;2024-03-06T00:12:35;16.83;;;12.33;;
55350;SDS011;62194;49.480;10.986;2024-03-06T00:12:40;16.63;;;12.10;;
55350;SDS011;62194;49.480;10.986;2024-03-06T00:12:45;16.63;;;12.13;;
55350;SDS011;62194;49.480;10.986;2024-03-06T00:12:50;16.70;;;12.07;;
55350;SDS011;62194;49.480;10.986;2024-03-06T00:12:56;16.20;;;11.80;;
55350;SDS011;62194;49.480;10.986;2024-03-06T00:13:01;15.87;;;11.67;;
55350;SDS011;62194;49.480;10.986;2024-03-06T00:13:07;15.65;;;11.48;;
55350;SDS011;62194;49.480;10.986;2024-03-06T00:13:13;15.50;;;11.57;;
55350;SDS011;62194;49.480;10.986;2024-03-06T00:13:18;15.70;;;12.05;;
55350;SDS011;62194;49.480;10.986;2024-03-06T00:13:23;16.30;;;12.73;;
55350;SDS011;62194;49.480;10.986;2024-03-06T00:13:29;17.10;;;13.17;;
55350;SDS011;62194;49.480;10.986;2024-03-06T00:13:34;17.47;;;13.47;;
55350;SDS011;62194;49.480;10.986;2024-03-06T00:13:42;17.83;;;13.75;;
55350;SDS011;62194;49.480;10.986;2024-03-06T00:13:48;18.05;;;13.63;;
55350;SDS011;62194;49.480;10.986;2024-03-06T00:13:53;17.87;;;13.20;;
55350;SDS011;62194;49.480;10.986;2024-03-06T00:13:58;17.33;;;12.82;;
55350;SDS011;62194;49.480;10.986;2024-03-06T00:14:04;17.02;;;12.52;;
55350;SDS011;62194;49.480;10.986;2024-03-06T00:14:10;17.03;;;12.47;;
55350;SDS011;62194;49.480;10.986;2024-03-06T00:14:17;17.10;;;12.70;;
55350;SDS011;62194;49.480;10.986;2024-03-06T00:14:23;17.23;;;12.65;;
55350;SDS011;62194;49.480;10.986;2024-03-06T00:14:28;17.88;;;12.65;;
55350;SDS011;62194;49.480;10.986;2024-03-06T00:14:34;18.70;;;12.97;;
55350;SDS011;62194;49.480;10.986;2024-03-06T00:14:41;20.73;;;13.53;;
55350;SDS011;62194;49.480;10.986;2024-03-06T00:14:46;20.83;;;13.55;;
55350;SDS011;62194;49.480;10.986;2024-03-06T00:14:52;20.73;;;13.67;;
55350;SDS011;62194;49.480;10.986;2024-03-06T00:14:57;20.27;;;13.70;;
55350;SDS011;62194;49.480;10.986;2024-03-06T00:15:02;19.92;;;13.80;;
55350;SDS011;62194;49.480;10.986;2024-03-06T00:15:08;18.77;;;13.83;;
55350;SDS011;62194;49.480;10.986;2024-03-06T00:15:13;17.77;;;13.50;;
55350;SDS011;62194;49.480;10.986;2024-03-06T00:15:19;16.80;;;13.17;;
55350;SDS011;62194;49.480;10.986;2024-03-06T00:15:24;17.60;;;13.27;;
55350;SDS011;62194;49.480;10.986;2024-03-06T00:15:29;17.80;;;13.07;;
55350;SDS011;62194;49.480;10.986;2024-03-06T00:15:34;18.10;;;12.97;;
55350;SDS011;62194;49.480;10.986;2024-03-06T00:15:40;18.45;;;12.80;;
55350;SDS011;62194;49.480;10.986;2024-03-06T00:15:46;19.23;;;12.90;;
55350;SDS011;62194;49.480;10.986;2024-03-06T00:15:51;19.33;;;13.03;;
55350;SDS011;62194;49.480;10.986;2024-03-06T00:15:56;18.83;;;13.10;;
55350;SDS011;62194;49.480;10.986;2024-03-06T00:16:01;18.60;;;13.27;;
55350;SDS011;62194;49.480;10.986;2024-03-06T00:16:07;18.30;;;13.20;;
55350;SDS011;62194;49.480;10.986;2024-03-06T00:16:12;17.83;;;13.18;;
55350;SDS011;62194;49.480;10.986;2024-03-06T00:16:17;18.03;;;13.10;;
55350;SDS011;62194;49.480;10.986;2024-03-06T00:16:23;18.05;;;13.13;;
55350;SDS011;62194;49.480;10.986;2024-03-06T00:16:28;18.00;;;13.00;;
55350;SDS011;62194;49.480;10.986;2024-03-06T00:16:33;17.53;;;12.93;;
55350;SDS011;62194;49.480;10.986;2024-03-06T00:16:39;17.80;;;12.93;;
55350;SDS011;62194;49.480;10.986;2024-03-06T00:16:44;17.60;;;12.95;;
55350;SDS011;62194;49.480;10.986;2024-03-06T00:16:50;17.35;;;13.07;;
55350;SDS011;62194;49.480;10.986;2024-03-06T00:16:56;18.00;;;13.30;;
55350;SDS011;62194;49.480;10.986;2024-03-06T00:17:01;18.20;;;13.40;;
55350;SDS011;62194;49.480;10.986;2024-03-06T00:17:09;17.50;;;13.17;;
55350;SDS011;62194;49.480;10.986;2024-03-06T00:17:14;17.53;;;13.23;;
55350;SDS011;62194;49.480;10.986;2024-03-06T00:17:20;17.15;;;12.93;;
55350;SDS011;62194;49.480;10.986;2024-03-06T00:17:25;16.67;;;12.33;;
55350;SDS011;62194;49.480;10.986;2024-03-06T00:17:31;16.77;;;12.07;;
55350;SDS011;62194;49.480;10.986;2024-03-06T00:17:37;17.27;;;12.00;;
55350;SDS011;62194;49.480;10.986;2024-03-06T00:17:42;17.67;;;11.87;;
55350;SDS011;62194;49.480;10.986;2024-03-06T00:17:47;17.97;;;11.93;;
55350;SDS011;62194;49.480;10.986;2024-03-06T00:17:52;18.07;;;12.20;;
55350;SDS011;62194;49.480;10.986;2024-03-06T00:17:58;18.02;;;12.48;;
55350;SDS011;62194;49.480;10.986;2024-03-06T00:18:03;17.87;;;12.57;;
55350;SDS011;62194;49.480;10.986;2024-03-06T00:18:10;17.70;;;12.86;;
55350;SDS011;62194;49.480;10.986;2024-03-06T00:18:15;17.93;;;13.10;;
55350;SDS011;62194;49.480;10.986;2024-03-06T00:18:21;17.67;;;12.87;;
55350;SDS011;62194;49.480;10.986;2024-03-06T00:18:26;17.20;;;12.73;;
55350;SDS011;62194;49.480;10.986;2024-03-06T00:18:31;17.47;;;12.83;;
55350;SDS011;62194;49.480;10.986;2024-03-06T00:18:36;16.87;;;12.60;;
55350;SDS011;62194;49.480;10.986;2024-03-06T00:18:42;16.15;;;12.43;;
55350;SDS011;62194;49.480;10.986;2024-03-06T00:18:47;15.70;;;12.40;;
55350;SDS011;62194;49.480;10.986;2024-03-06T00:18:52;15.70;;;12.37;;
55350;SDS011;62194;49.480;10.986;2024-03-06T00:18:58;16.05;;;12.38;;
55350;SDS011;62194;49.480;10.986;2024-03-06T00:19:03;15.90;;;12.23;;
55350;SDS011;62194;49.480;10.986;2024-03-06T00:19:08;15.93;;;12.13;;
55350;SDS011;62194;49.480;10.986;2024-03-06T00:19:13;16.77;;;12.10;;
55350;SDS011;62194;49.480;10.986;2024-03-06T00:19:19;17.38;;;11.90;;
55350;SDS011;62194;49.480;10.986;2024-03-06T00:19:25;16.80;;;11.57;;
55350;SDS011;62194;49.480;10.986;2024-03-06T00:19:30;16.50;;;11.60;;
55350;SDS011;62194;49.480;10.986;2024-03-06T00:19:36;17.13;;;12.18;;
55350;SDS011;62194;49.480;10.986;2024-03-06T00:19:41;17.33;;;12.27;;
55350;SDS011;62194;49.480;10.986;2024-03-06T00:19:46;17.40;;;12.73;;
55350;SDS011;62194;49.480;10.986;2024-03-06T00:19:51;17.30;;;12.85;;
55350;SDS011;62194;49.480;10.986;2024-03-06T00:19:57;17.37;;;12.83;;
55350;SDS011;62194;49.480;10.986;2024-03-06T00:20:02;17.20;;;12.57;;
55350;SDS011;62194;49.480;10.986;2024-03-06T00:20:10;17.67;;;12.40;;
55350;SDS011;62194;49.480;10.986;2024-03-06T00:20:16;17.10;;;12.25;;
55350;SDS011;62194;49.480;10.986;2024-03-06T00:20:21;16.80;;;12.23;;
55350;SDS011;62194;49.480;10.986;2024-03-06T00:20:27;17.50;;;12.57;;
55350;SDS011;62194;49.480;10.986;2024-03-06T00:20:33;18.13;;;12.88;;
55350;SDS011;62194;49.480;10.986;2024-03-06T00:20:38;17.67;;;13.10;;
55350;SDS011;62194;49.480;10.986;2024-03-06T00:20:45;18.67;;;13.47;;
55350;SDS011;62194;49.480;10.986;2024-03-06T00:20:50;18.87;;;13.40;;
55350;SDS011;62194;49.480;10.986;2024-03-06T00:20:55;18.58;;;13.32;;
55350;SDS011;62194;49.480;10.986;2024-03-06T00:21:01;18.17;;;13.20;;
55350;SDS011;62194;49.480;10.986;2024-03-06T00:21:06;17.93;;;12.83;;
55350;SDS011;62194;49.480;10.986;2024-03-06T00:21:12;17.77;;;12.77;;
55350;SDS011;62194;49.480;10.986;2024-03-06T00:21:17;17.13;;;12.73;;
55350;SDS011;62194;49.480;10.986;2024-03-06T00:21:23;16.83;;;12.55;;
55350;SDS011;62194;49.480;10.986;2024-03-06T00:21:28;17.03;;;12.27;;
55350;SDS011;62194;49.480;10.986;2024-03-06T00:21:34;17.85;;;12.68;;
55350;SDS011;62194;49.480;10.986;2024-03-06T00:21:41;18.33;;;12.93;;
55350;SDS011;62194;49.480;10.986;2024-03-06T00:21:46;18.70;;;12.90;;
55350;SDS011;62194;49.480;10.986;2024-03-06T00:21:51;19.08;;;13.18;;
55350;SDS011;62194;49.480;10.986;2024-03-06T00:21:57;19.17;;;13.47;;
55350;SDS011;62194;49.480;10.986;2024-03-06T00:22:02;17.83;;;13.27;;
55350;SDS011;62194;49.480;10.986;2024-03-06T00:22:09;17.50;;;13.15;;
55350;SDS011;62194;49.480;10.986;2024-03-06T00:22:14;17.93;;;13.20;;
55350;SDS011;62194;49.480;10.986;2024-03-06T00:22:20;18.10;;;13.03;;
55350;SDS011;62194;49.480;10.986;2024-03-06T00:22:28;18.07;;;12.97;;
55350;SDS011;62194;49.480;10.986;2024-03-06T00:22:33;18.37;;;12.80;;
55350;SDS011;62194;49.480;10.986;2024-03-06T00:22:39;17.92;;;12.32;;
55350;SDS011;62194;49.480;10.986;2024-03-06T00:22:44;16.63;;;12.07;;
55350;SDS011;62194;49.480;10.986;2024-03-06T00:22:50;16.58;;;12.05;;
55350;SDS011;62194;49.480;10.986;2024-03-06T00:22:55;16.77;;;12.03;;
55350;SDS011;62194;49.480;10.986;2024-03-06T00:23:01;16.63;;;12.03;;
55350;SDS011;62194;49.480;10.986;2024-03-06T00:23:06;17.00;;;12.27;;
55350;SDS011;62194;49.480;10.986;2024-03-06T00:23:11;17.60;;;12.47;;
55350;SDS011;62194;49.480;10.986;2024-03-06T00:23:17;17.77;;;12.47;;
55350;SDS011;62194;49.480;10.986;2024-03-06T00:23:22;17.77;;;12.60;;
55350;SDS011;62194;49.480;10.986;2024-03-06T00:23:27;17.53;;;12.60;;
55350;SDS011;62194;49.480;10.986;2024-03-06T00:23:33;17.33;;;12.43;;
55350;SDS011;62194;49.480;10.986;2024-03-06T00:23:39;17.37;;;12.47;;
55350;SDS011;62194;49.480;10.986;2024-03-06T00:23:44;17.33;;;12.37;;
55350;SDS011;62194;49.480;10.986;2024-03-06T00:23:51;17.33;;;12.20;;
55350;SDS011;62194;49.480;10.986;2024-03-06T00:23:56;17.45;;;12.13;;
55350;SDS011;62194;49.480;10.986;2024-03-06T00:24:02;17.70;;;12.37;;
55350;SDS011;62194;49.480;10.986;2024-03-06T00:24:09;17.53;;;12.33;;
55350;SDS011;62194;49.480;10.986;2024-03-06T00:24:16;17.45;;;12.52;;
55350;SDS011;62194;49.480;10.986;2024-03-06T00:24:22;17.50;;;12.90;;
55350;SDS011;62194;49.480;10.986;2024-03-06T00:24:28;17.55;;;12.98;;
55350;SDS011;62194;49.480;10.986;2024-03-06T00:24:33;17.23;;;12.80;;
55350;SDS011;62194;49.480;10.986;2024-03-06T00:24:38;17.93;;;13.17;;
55350;SDS011;62194;49.480;10.986;2024-03-06T00:24:44;18.57;;;13.27;;
55350;SDS011;62194;49.480;10.986;2024-03-06T00:24:49;18.42;;;13.20;;
55350;SDS011;62194;49.480;10.986;2024-03-06T00:24:55;18.30;;;13.13;;
55350;SDS011;62194;49.480;10.986;2024-03-06T00:25:00;18.60;;;13.17;;
55350;SDS011;62194;49.480;10.986;2024-03-06T00:25:06;19.20;;;13.20;;
55350;SDS011;62194;49.480;10.986;2024-03-06T00:25:11;19.13;;;13.18;;
55350;SDS011;62194;49.480;10.986;2024-03-06T00:25:16;19.60;;;13.10;;
55350;SDS011;62194;49.480;10.986;2024-03-06T00:25:22;19.67;;;13.10;;
55350;SDS011;62194;49.480;10.986;2024-03-06T00:25:27;19.77;;;13.10;;
55350;SDS011;62194;49.480;10.986;2024-03-06T00:25:32;19.23;;;12.93;;
55350;SDS011;62194;49.480;10.986;2024-03-06T00:25:38;18.17;;;12.52;;
55350;SDS011;62194;49.480;10.986;2024-03-06T00:25:43;17.57;;;12.33;;
55350;SDS011;62194;49.480;10.986;2024-03-06T00:25:49;16.77;;;12.10;;
55350;SDS011;62194;49.480;10.986;2024-03-06T00:25:54;16.80;;;12.20;;
55350;SDS011;62194;49.480;10.986;2024-03-06T00:25:59;16.90;;;12.33;;
55350;SDS011;62194;49.480;10.986;2024-03-06T00:26:04;17.17;;;12.27;;
55350;SDS011;62194;49.480;10.986;2024-03-06T00:26:10;17.10;;;12.27;;
55350;SDS011;62194;49.480;10.986;2024-03-06T00:26:16;17.33;;;12.25;;
55350;SDS011;62194;49.480;10.986;2024-03-06T00:26:21;17.40;;;12.17;;
55350;SDS011;62194;49.480;10.986;2024-03-06T00:26:26;17.27;;;11.87;;
55350;SDS011;62194;49.480;10.986;2024-03-06T00:26:31;16.73;;;11.57;;
55350;SDS011;62194;49.480;10.986;2024-03-06T00:26:39;16.38;;;11.70;;
55350;SDS011;62194;49.480;10.986;2024-03-06T00:26:45;16.77;;;11.93;;
55350;SDS011;62194;49.480;10.986;2024-03-06T00:26:52;17.43;;;12.10;;
55350;SDS011;62194;49.480;10.986;2024-03-06T00:26:57;17.33;;;12.07;;
55350;SDS011;62194;49.480;10.986;2024-03-06T00:27:02;17.37;;;12.10;;
55350;SDS011;62194;49.480;10.986;2024-03-06T00:27:09;17.78;;;12.06;;
55350;SDS011;62194;49.480;10.986;2024-03-06T00:27:15;17.55;;;11.77;;
55350;SDS011;62194;49.480;10.986;2024-03-06T00:27:21;17.05;;;11.88;;
55350;SDS011;62194;49.480;10.986;2024-03-06T00:27:26;17.33;;;11.97;;
55350;SDS011;62194;49.480;10.986;2024-03-06T00:27:31;17.13;;;11.80;;
55350;SDS011;62194;49.480;10.986;2024-03-06T00:27:37;16.83;;;11.85;;
55350;SDS011;62194;49.480;10.986;2024-03-06T00:27:42;16.80;;;12.17;;
55350;SDS011;62194;49.480;10.986;2024-03-06T00:27:47;16.77;;;12.00;;
55350;SDS011;62194;49.480;10.986;2024-03-06T00:27:52;15.98;;;11.73;;
55350;SDS011;62194;49.480;10.986;2024-03-06T00:27:59;15.63;;;11.93;;
55350;SDS011;62194;49.480;10.986;2024-03-06T00:28:04;15.90;;;12.00;;
55350;SDS011;62194;49.480;10.986;2024-03-06T00:28:11;15.80;;;12.10;;
55350;SDS011;62194;49.480;10.986;2024-03-06T00:28:16;15.97;;;12.17;;
55350;SDS011;62194;49.480;10.986;2024-03-06T00:28:21;16.77;;;12.53;;
55350;SDS011;62194;49.480;10.986;2024-03-06T00:28:26;17.17;;;12.60;;
55350;SDS011;62194;49.480;10.986;2024-03-06T00:28:32;17.17;;;12.70;;
55350;SDS011;62194;49.480;10.986;2024-03-06T00:28:37;17.23;;;12.67;;
55350;SDS011;62194;49.480;10.986;2024-03-06T00:28:43;17.13;;;12.43;;
55350;SDS011;62194;49.480;10.986;2024-03-06T00:28:49;16.67;;;12.27;;
55350;SDS011;62194;49.480;10.986;2024-03-06T00:28:54;16.03;;;11.90;;
55350;SDS011;62194;49.480;10.986;2024-03-06T00:28:59;16.13;;;12.00;;
55350;SDS011;62194;49.480;10.986;2024-03-06T00:29:04;16.10;;;12.00;;
55350;SDS011;62194;49.480;10.986;2024-03-06T00:29:10;16.00;;;12.23;;
55350;SDS011;62194;49.480;10.986;2024-03-06T00:29:16;16.87;;;12.30;;
55350;SDS011;62194;49.480;10.986;2024-03-06T00:29:21;17.42;;;12.35;;
55350;SDS011;62194;49.480;10.986;2024-03-06T00:29:27;17.17;;;12.23;;
55350;SDS011;62194;49.480;10.986;2024-03-06T00:29:32;17.23;;;12.20;;
55350;SDS011;62194;49.480;10.986;2024-03-06T00:29:37;17.50;;;12.52;;
55350;SDS011;62194;49.480;10.986;2024-03-06T00:29:43;17.60;;;12.33;;
55350;SDS011;62194;49.480;10.986;2024-03-06T00:29:48;16.77;;;12.37;;
55350;SDS011;62194;49.480;10.986;2024-03-06T00:29:53;16.63;;;12.48;;
55350;SDS011;62194;49.480;10.986;2024-03-06T00:29:59;16.73;;;12.50;;
55350;SDS011;62194;49.480;10.986;2024-03-06T00:30:04;16.80;;;12.27;;
55350;SDS011;62194;49.480;10.986;2024-03-06T00:30:10;16.75;;;12.02;;
55350;SDS011;62194;49.480;10.986;2024-03-06T00:30:15;16.55;;;12.18;;
55350;SDS011;62194;49.480;10.986;2024-03-06T00:30:21;16.23;;;12.20;;
55350;SDS011;62194;49.480;10.986;2024-03-06T00:30:26;17.00;;;12.40;;
55350;SDS011;62194;49.480;10.986;2024-03-06T00:30:32;17.20;;;12.50;;
55350;SDS011;62194;49.480;10.986;2024-03-06T00:30:37;17.17;;;12.73;;
55350;SDS011;62194;49.480;10.986;2024-03-06T00:30:42;18.10;;;13.07;;
55350;SDS011;62194;49.480;10.986;2024-03-06T00:30:47;18.37;;;13.40;;
55350;SDS011;62194;49.480;10.986;2024-03-06T00:30:53;18.67;;;13.50;;
55350;SDS011;62194;49.480;10.986;2024-03-06T00:30:58;18.73;;;13.85;;
55350;SDS011;62194;49.480;10.986;2024-03-06T00:31:04;18.27;;;13.77;;
55350;SDS011;62194;49.480;10.986;2024-03-06T00:31:10;18.20;;;13.75;;
55350;SDS011;62194;49.480;10.986;2024-03-06T00:31:15;17.80;;;13.50;;
55350;SDS011;62194;49.480;10.986;2024-03-06T00:31:20;17.87;;;13.53;;
55350;SDS011;62194;49.480;10.986;2024-03-06T00:31:26;18.30;;;13.40;;
55350;SDS011;62194;49.480;10.986;2024-03-06T00:31:31;18.52;;;13.30;;
55350;SDS011;62194;49.480;10.986;2024-03-06T00:31:37;18.83;;;13.23;;
55350;SDS011;62194;49.480;10.986;2024-03-06T00:31:47;18.49;;;12.93;;
55350;SDS011;62194;49.480;10.986;2024-03-06T00:31:53;18.53;;;12.93;;
55350;SDS011;62194;49.480;10.986;2024-03-06T00:31:58;17.42;;;12.77;;